Time;durP1;ratioP1;P1;durP2;ratioP2;P2;SDS_P1;SDS_P2;PMS_P1;PMS_P2;Temp;Humidity;BMP_temperature;BMP_pressure;BME280_temperature;BME280_humidity;BME280_pressure;Samples;Min_cycle;Max_cycle;Signal;HPM_P1;HPM_P2
2023/04/19 00:00:22;;;;;;;5.43;4.47;;;9.90;99.90;;;;;;5055397;28;20036;-72
2023/04/19 00:02:56;;;;;;;4.88;3.65;;;9.90;99.90;;;;;;5075865;29;20031;-71
2023/04/19 00:05:28;;;;;;;5.40;4.47;;;9.90;99.90;;;;;;5056065;29;20714;-71
2023/04/19 00:08:01;;;;;;;5.70;4.43;;;9.90;99.90;;;;;;5071231;29;20276;-71
2023/04/19 00:10:35;;;;;;;5.10;4.00;;;9.90;99.90;;;;;;5099741;29;20037;-72
2023/04/19 00:13:08;;;;;;;8.73;4.53;;;9.90;99.90;;;;;;5080175;29;20382;-72
2023/04/19 00:15:42;;;;;;;5.72;4.03;;;9.90;99.90;;;;;;5072053;29;20048;-72
2023/04/19 00:18:16;;;;;;;6.67;4.97;;;9.90;99.90;;;;;;5073589;28;20256;-71
2023/04/19 00:20:49;;;;;;;4.97;4.38;;;9.90;99.90;;;;;;5072786;29;20051;-72
2023/04/19 00:23:20;;;;;;;4.13;3.70;;;9.90;99.90;;;;;;5091716;29;20047;-71
2023/04/19 00:25:52;;;;;;;5.55;4.22;;;9.90;99.90;;;;;;5107740;29;20487;-71
2023/04/19 00:28:24;;;;;;;6.25;4.18;;;9.90;99.90;;;;;;5091971;29;20137;-72
2023/04/19 00:30:56;;;;;;;6.53;5.07;;;9.80;99.90;;;;;;5077421;29;20657;-71
2023/04/19 00:33:27;;;;;;;4.55;3.67;;;9.90;99.90;;;;;;5092105;29;20039;-72
2023/04/19 00:35:59;;;;;;;6.15;4.93;;;9.80;99.90;;;;;;5076092;28;20507;-71
2023/04/19 00:38:30;;;;;;;8.93;6.13;;;9.90;99.90;;;;;;5086804;29;20035;-72
2023/04/19 00:41:04;;;;;;;7.85;5.10;;;9.80;99.90;;;;;;5087662;29;20067;-72
2023/04/19 00:43:35;;;;;;;8.25;5.07;;;9.80;99.90;;;;;;5077935;28;20054;-72
2023/04/19 00:46:09;;;;;;;8.40;5.28;;;9.70;99.90;;;;;;5107183;29;20049;-72
2023/04/19 00:48:41;;;;;;;9.55;5.85;;;9.80;99.90;;;;;;5105913;29;20035;-72
2023/04/19 00:51:14;;;;;;;7.22;4.35;;;9.70;99.90;;;;;;5091798;28;20051;-72
2023/04/19 00:53:46;;;;;;;10.10;4.53;;;9.70;99.90;;;;;;5071655;29;20609;-71
2023/04/19 00:56:20;;;;;;;8.20;5.22;;;9.60;99.90;;;;;;5084275;29;20539;-72
2023/04/19 00:58:55;;;;;;;7.88;5.30;;;9.60;99.90;;;;;;5074041;28;20046;-71
2023/04/19 01:01:27;;;;;;;6.82;4.63;;;9.60;99.90;;;;;;5158864;23;20054;-71
2023/04/19 01:04:02;;;;;;;6.00;4.40;;;9.60;99.90;;;;;;5217733;23;20200;-74
2023/04/19 01:06:36;;;;;;;10.38;5.03;;;9.60;99.90;;;;;;5192560;28;20055;-74
2023/04/19 01:09:10;;;;;;;7.88;6.30;;;9.60;99.90;;;;;;5205524;28;20033;-73
2023/04/19 01:11:41;;;;;;;6.88;5.10;;;9.60;99.90;;;;;;5186138;28;20226;-73
2023/04/19 01:14:13;;;;;;;8.68;5.38;;;9.60;99.90;;;;;;5184920;28;20029;-73
2023/04/19 01:16:46;;;;;;;9.05;5.75;;;9.60;99.90;;;;;;5176031;28;20333;-73
2023/04/19 01:19:20;;;;;;;6.00;5.30;;;9.60;99.90;;;;;;5173276;28;20044;-73
2023/04/19 01:21:52;;;;;;;8.50;5.75;;;9.60;99.90;;;;;;5163205;28;20506;-73
2023/04/19 01:24:25;;;;;;;8.07;5.70;;;9.60;99.90;;;;;;5195403;28;20033;-72
2023/04/19 01:27:02;;;;;;;7.70;5.78;;;9.50;99.90;;;;;;5203193;28;20554;-73
2023/04/19 01:29:37;;;;;;;9.85;6.82;;;9.50;99.90;;;;;;5150314;28;20037;-73
2023/04/19 01:32:12;;;;;;;7.82;4.57;;;9.40;99.90;;;;;;5172811;28;20041;-72
2023/04/19 01:34:46;;;;;;;8.15;5.47;;;9.40;99.90;;;;;;5197788;28;20017;-72
2023/04/19 01:37:25;;;;;;;7.43;5.22;;;9.40;99.90;;;;;;5186113;28;20045;-72
2023/04/19 01:39:57;;;;;;;7.80;5.32;;;9.30;99.90;;;;;;5178191;28;20036;-73
2023/04/19 01:42:31;;;;;;;11.13;5.88;;;9.30;99.90;;;;;;5189641;28;20046;-72
2023/04/19 01:45:03;;;;;;;9.25;5.57;;;9.30;99.90;;;;;;5159793;28;20045;-72
2023/04/19 01:47:39;;;;;;;9.93;5.65;;;9.30;99.90;;;;;;5191117;28;20055;-72
2023/04/19 01:50:23;;;;;;;10.65;6.43;;;9.30;99.90;;;;;;5176098;28;20579;-72
2023/04/19 01:52:54;;;;;;;7.70;5.13;;;9.40;99.90;;;;;;5173659;28;20045;-70
2023/04/19 01:55:27;;;;;;;9.18;6.03;;;9.40;99.90;;;;;;5175319;28;20028;-72
2023/04/19 01:57:58;;;;;;;7.65;5.32;;;9.40;99.90;;;;;;5190443;28;20108;-72
2023/04/19 02:00:31;;;;;;;8.90;5.68;;;9.30;99.90;;;;;;5170648;28;20366;-72
2023/04/19 02:03:03;;;;;;;6.57;5.20;;;9.30;99.90;;;;;;5191891;28;20029;-72
2023/04/19 02:05:34;;;;;;;7.57;5.78;;;9.20;99.90;;;;;;5181920;28;20285;-72
2023/04/19 02:08:06;;;;;;;8.20;6.78;;;9.20;99.90;;;;;;5191822;28;20472;-71
2023/04/19 02:10:38;;;;;;;10.75;6.40;;;9.20;99.90;;;;;;5174874;28;20041;-72
2023/04/19 02:13:12;;;;;;;8.68;6.47;;;9.20;99.90;;;;;;5191700;28;20038;-72
2023/04/19 02:15:43;;;;;;;9.73;6.28;;;9.20;99.90;;;;;;5155939;28;20041;-72
2023/04/19 02:18:20;;;;;;;8.18;5.85;;;9.30;99.90;;;;;;5174320;28;20037;-75
2023/04/19 02:20:51;;;;;;;10.80;7.18;;;9.40;99.90;;;;;;5175902;28;20037;-71
2023/04/19 02:23:22;;;;;;;8.23;6.22;;;9.30;99.90;;;;;;5177067;28;20026;-72
2023/04/19 02:25:58;;;;;;;9.15;5.82;;;9.30;99.90;;;;;;5162851;28;20045;-71
2023/04/19 02:28:36;;;;;;;10.40;6.03;;;9.30;99.90;;;;;;5169131;28;20326;-71
2023/04/19 02:31:10;;;;;;;10.00;6.18;;;9.40;99.90;;;;;;5163847;28;20037;-72
2023/04/19 02:33:47;;;;;;;9.05;6.15;;;9.50;99.90;;;;;;5160353;28;20041;-71
2023/04/19 02:36:20;;;;;;;8.85;5.20;;;9.50;99.90;;;;;;5173573;28;20448;-72
2023/04/19 02:38:58;;;;;;;11.90;6.60;;;9.50;99.90;;;;;;5193799;28;20034;-72
2023/04/19 02:41:29;;;;;;;8.63;6.60;;;9.50;99.90;;;;;;5192298;28;20048;-71
2023/04/19 02:44:03;;;;;;;8.43;6.15;;;9.50;99.90;;;;;;5191084;28;20345;-71
2023/04/19 02:46:36;;;;;;;10.52;6.30;;;9.60;99.90;;;;;;5153769;28;20049;-72
2023/04/19 02:49:08;;;;;;;12.00;7.82;;;9.60;99.90;;;;;;5173236;28;20540;-72
2023/04/19 02:51:45;;;;;;;11.13;6.25;;;9.60;99.90;;;;;;5177895;28;20040;-72
2023/04/19 02:54:16;;;;;;;9.70;7.10;;;9.60;99.90;;;;;;5172055;28;20025;-71
2023/04/19 02:56:49;;;;;;;10.02;6.28;;;9.60;99.90;;;;;;5171689;28;20045;-73
2023/04/19 02:59:25;;;;;;;8.90;6.32;;;9.60;99.90;;;;;;5166373;28;20045;-72
2023/04/19 03:01:56;;;;;;;9.80;6.65;;;9.60;99.90;;;;;;5154482;28;20045;-71
2023/04/19 03:04:31;;;;;;;8.65;6.18;;;9.60;99.90;;;;;;5168089;28;20449;-72
2023/04/19 03:07:02;;;;;;;11.20;6.53;;;9.60;99.90;;;;;;5170873;28;20048;-72
2023/04/19 03:09:33;;;;;;;10.73;7.15;;;9.60;99.90;;;;;;5153796;28;20038;-72
2023/04/19 03:12:06;;;;;;;10.80;7.20;;;9.60;99.90;;;;;;5174067;28;20040;-72
2023/04/19 03:14:37;;;;;;;8.98;6.10;;;9.60;99.90;;;;;;5174360;28;20584;-71
2023/04/19 03:17:10;;;;;;;10.68;6.40;;;9.60;99.90;;;;;;5155852;28;20383;-72
2023/04/19 03:19:44;;;;;;;9.38;6.78;;;9.50;99.90;;;;;;5157576;28;20040;-72
2023/04/19 03:22:17;;;;;;;9.43;6.85;;;9.50;99.90;;;;;;5174606;28;20029;-74
2023/04/19 03:24:54;;;;;;;9.60;6.82;;;9.50;99.90;;;;;;5169803;28;20036;-72
2023/04/19 03:27:25;;;;;;;11.23;7.28;;;9.40;99.90;;;;;;5182861;28;20195;-72
2023/04/19 03:29:57;;;;;;;9.85;6.93;;;9.40;99.90;;;;;;5174422;28;20592;-72
2023/04/19 03:32:30;;;;;;;9.95;6.85;;;9.40;99.90;;;;;;5168231;28;20033;-73
2023/04/19 03:35:07;;;;;;;11.65;7.35;;;9.40;99.90;;;;;;5192269;28;20028;-73
2023/04/19 03:37:46;;;;;;;11.35;7.32;;;9.40;99.90;;;;;;5192139;28;20033;-72
2023/04/19 03:40:17;;;;;;;12.02;7.60;;;9.40;99.90;;;;;;5206206;28;20043;-72
2023/04/19 03:42:54;;;;;;;12.90;7.55;;;9.50;99.90;;;;;;5193147;28;20431;-72
2023/04/19 03:45:28;;;;;;;8.77;6.35;;;9.50;99.90;;;;;;5156363;28;20030;-71
2023/04/19 03:48:01;;;;;;;12.70;7.38;;;9.50;99.90;;;;;;5195231;28;20039;-71
2023/04/19 03:50:38;;;;;;;11.23;7.65;;;9.50;99.90;;;;;;5159714;28;20037;-71
2023/04/19 03:53:14;;;;;;;13.55;7.28;;;9.40;99.90;;;;;;5177820;28;20029;-72
2023/04/19 03:55:49;;;;;;;9.50;6.72;;;9.40;99.90;;;;;;5195809;28;20533;-74
2023/04/19 03:58:25;;;;;;;8.73;6.50;;;9.30;99.90;;;;;;5161388;28;20041;-71
2023/04/19 04:01:01;;;;;;;13.57;7.43;;;9.30;99.90;;;;;;5208670;28;20043;-73
2023/04/19 04:03:32;;;;;;;10.63;7.80;;;9.20;99.90;;;;;;5163069;28;20045;-76
2023/04/19 04:06:05;;;;;;;9.82;7.75;;;9.20;99.90;;;;;;5173444;28;20052;-73
2023/04/19 04:08:39;;;;;;;9.80;6.63;;;9.10;99.90;;;;;;5135925;28;20249;-71
2023/04/19 04:11:13;;;;;;;9.97;7.00;;;9.10;99.90;;;;;;5106137;28;20035;-71
2023/04/19 04:13:49;;;;;;;11.18;7.07;;;9.10;99.90;;;;;;5106323;28;20276;-72
2023/04/19 04:16:23;;;;;;;9.50;7.60;;;9.10;99.90;;;;;;5103473;28;20045;-72
2023/04/19 04:18:57;;;;;;;11.38;8.27;;;9.20;99.90;;;;;;5111199;28;20050;-72
2023/04/19 04:21:30;;;;;;;11.32;7.57;;;9.10;99.90;;;;;;5137228;28;20051;-71
2023/04/19 04:24:02;;;;;;;11.23;7.47;;;9.10;99.90;;;;;;5125995;28;20045;-71
2023/04/19 04:26:38;;;;;;;9.52;7.25;;;9.20;99.90;;;;;;5142830;28;20032;-72
2023/04/19 04:29:09;;;;;;;11.48;7.75;;;9.20;99.90;;;;;;5136796;28;20038;-72
2023/04/19 04:31:40;;;;;;;11.27;8.05;;;9.20;99.90;;;;;;5134678;28;20250;-72
2023/04/19 04:34:14;;;;;;;13.40;7.88;;;9.30;99.90;;;;;;5128333;28;20515;-72
2023/04/19 04:36:49;;;;;;;11.50;7.53;;;9.30;99.90;;;;;;5142321;28;20042;-74
2023/04/19 04:39:22;;;;;;;11.38;7.43;;;9.40;99.90;;;;;;5111876;28;20208;-72
2023/04/19 04:41:56;;;;;;;11.80;7.67;;;9.40;99.90;;;;;;5128832;28;20043;-71
2023/04/19 04:44:27;;;;;;;10.95;7.47;;;9.40;99.90;;;;;;5110235;28;20045;-72
2023/04/19 04:46:59;;;;;;;14.85;8.40;;;9.40;99.90;;;;;;5110176;28;20038;-71
2023/04/19 04:49:30;;;;;;;9.90;6.88;;;9.50;99.90;;;;;;5091084;28;20029;-72
2023/04/19 04:52:01;;;;;;;9.82;6.38;;;9.50;99.90;;;;;;5128646;28;20037;-72
2023/04/19 04:54:35;;;;;;;9.40;6.15;;;9.50;99.90;;;;;;5176368;28;20052;-72
2023/04/19 04:57:07;;;;;;;10.55;6.68;;;9.50;99.90;;;;;;5157816;28;20041;-71
2023/04/19 04:59:40;;;;;;;12.68;7.13;;;9.50;99.90;;;;;;5177080;28;20033;-71
2023/04/19 05:02:12;;;;;;;10.45;7.32;;;9.50;99.90;;;;;;5171483;28;20035;-71
2023/04/19 05:04:45;;;;;;;11.05;7.60;;;9.60;99.90;;;;;;5177092;28;20060;-71
2023/04/19 05:07:19;;;;;;;9.77;6.47;;;9.70;99.90;;;;;;5174435;28;20369;-71
2023/04/19 05:09:51;;;;;;;10.27;7.97;;;9.70;99.90;;;;;;5173799;28;20033;-71
2023/04/19 05:12:24;;;;;;;9.43;7.47;;;9.70;99.90;;;;;;5175703;28;20025;-71
2023/04/19 05:14:58;;;;;;;11.35;7.22;;;9.80;99.90;;;;;;5170577;28;20076;-72
2023/04/19 05:17:41;;;;;;;338.40;163.65;;;9.80;99.90;;;;;;5122966;28;20646;-72
2023/04/19 05:20:13;;;;;;;200.27;115.90;;;9.80;99.90;;;;;;5174705;28;20041;-71
2023/04/19 05:22:44;;;;;;;208.85;116.30;;;9.80;99.90;;;;;;5188129;28;20028;-71
2023/04/19 05:25:15;;;;;;;52.28;37.45;;;9.80;99.90;;;;;;5158839;28;20575;-72
2023/04/19 05:27:49;;;;;;;14.80;9.57;;;9.80;99.90;;;;;;5178195;28;20034;-72
2023/04/19 05:30:20;;;;;;;24.45;19.20;;;9.70;99.90;;;;;;5164737;28;20599;-72
2023/04/19 05:32:55;;;;;;;12.73;8.23;;;9.70;99.90;;;;;;5177473;28;20033;-72
2023/04/19 05:35:28;;;;;;;12.30;7.90;;;9.60;99.90;;;;;;5158032;28;20215;-72
2023/04/19 05:38:00;;;;;;;12.27;8.52;;;9.50;99.90;;;;;;5181500;28;20182;-72
2023/04/19 05:40:34;;;;;;;12.85;8.43;;;9.50;99.90;;;;;;5189092;28;20048;-71
2023/04/19 05:43:05;;;;;;;;;;;9.40;99.90;;;;;;5156715;28;20036;-71
2023/04/19 05:45:36;;;;;;;43.55;33.97;;;9.50;99.90;;;;;;5190749;28;19908;-71
2023/04/19 05:48:10;;;;;;;39.60;28.20;;;9.50;99.90;;;;;;5171931;28;20245;-72
2023/04/19 05:50:44;;;;;;;58.80;43.53;;;9.50;99.90;;;;;;5172291;28;20283;-72
2023/04/19 05:53:17;;;;;;;48.95;42.72;;;9.60;99.90;;;;;;5188556;28;20476;-71
2023/04/19 05:55:51;;;;;;;23.37;19.30;;;9.60;99.90;;;;;;5176162;28;20044;-72
2023/04/19 05:58:25;;;;;;;14.45;9.07;;;9.60;99.90;;;;;;5169575;28;20494;-71
2023/04/19 06:00:58;;;;;;;23.83;17.40;;;9.60;99.90;;;;;;5181236;28;20029;-72
2023/04/19 06:03:30;;;;;;;20.40;12.18;;;9.70;99.90;;;;;;5171476;28;20563;-71
2023/04/19 06:06:04;;;;;;;12.68;9.15;;;9.70;99.90;;;;;;5178163;28;20072;-71
2023/04/19 06:08:38;;;;;;;14.52;10.25;;;9.70;99.90;;;;;;5158583;28;20045;-71
2023/04/19 06:11:10;;;;;;;14.18;10.07;;;9.70;99.90;;;;;;5165680;28;20044;-71
2023/04/19 06:13:44;;;;;;;14.13;9.50;;;9.70;99.90;;;;;;5180650;28;20061;-71
2023/04/19 06:16:15;;;;;;;22.83;19.63;;;9.70;99.90;;;;;;5189634;28;20018;-71
2023/04/19 06:18:54;;;;;;;82.30;49.03;;;9.70;99.90;;;;;;5187911;28;20042;-71
2023/04/19 06:21:25;;;;;;;244.98;183.38;;;9.70;99.90;;;;;;5190445;28;20318;-72
2023/04/19 06:23:57;;;;;;;37.80;31.40;;;9.80;99.90;;;;;;5180341;28;20070;-73
2023/04/19 06:26:28;;;;;;;44.45;38.47;;;9.70;99.90;;;;;;5177608;28;20033;-73
2023/04/19 06:29:00;;;;;;;15.82;12.50;;;9.70;99.90;;;;;;5175255;28;20044;-73
2023/04/19 06:31:34;;;;;;;15.98;12.02;;;9.70;99.90;;;;;;5191720;28;20025;-72
2023/04/19 06:34:07;;;;;;;9.45;7.68;;;9.70;99.90;;;;;;5174516;28;20218;-73
2023/04/19 06:36:38;;;;;;;10.13;7.28;;;9.70;99.90;;;;;;5192781;28;20291;-71
2023/04/19 06:39:12;;;;;;;9.90;7.18;;;9.70;99.90;;;;;;5175052;28;20049;-72
2023/04/19 06:41:43;;;;;;;10.32;8.02;;;9.60;99.90;;;;;;5175618;28;20038;-71
2023/04/19 06:44:14;;;;;;;11.85;7.40;;;9.60;99.90;;;;;;5188073;28;20041;-71
2023/04/19 06:46:48;;;;;;;11.65;7.30;;;9.50;99.90;;;;;;5155647;28;20029;-71
2023/04/19 06:49:19;;;;;;;9.98;7.68;;;9.60;99.90;;;;;;5192345;28;20033;-71
2023/04/19 06:51:50;;;;;;;10.23;7.40;;;9.60;99.90;;;;;;5153371;28;20021;-71
2023/04/19 06:54:22;;;;;;;7.97;6.10;;;9.60;99.90;;;;;;5174431;28;20140;-70
2023/04/19 06:56:53;;;;;;;12.50;7.90;;;9.50;99.90;;;;;;5179213;28;20034;-71
2023/04/19 06:59:27;;;;;;;695.63;423.98;;;9.60;99.90;;;;;;5150001;28;20321;-70
2023/04/19 07:01:58;;;;;;;19.85;14.73;;;9.60;99.90;;;;;;5175321;28;20034;-72
2023/04/19 07:04:37;;;;;;;15.07;9.73;;;9.50;99.90;;;;;;5143788;28;20272;-72
2023/04/19 07:07:10;;;;;;;15.13;11.10;;;9.50;99.90;;;;;;5181941;28;20216;-72
2023/04/19 07:09:46;;;;;;;15.60;9.70;;;9.40;99.90;;;;;;5165482;28;20033;-73
2023/04/19 07:12:17;;;;;;;13.80;10.10;;;9.40;99.90;;;;;;5187334;28;20242;-73
2023/04/19 07:14:49;;;;;;;12.68;10.00;;;9.40;99.90;;;;;;5192997;28;20040;-74
2023/04/19 07:17:20;;;;;;;11.07;7.57;;;9.40;99.90;;;;;;5184054;28;20056;-75
2023/04/19 07:19:53;;;;;;;11.20;7.75;;;9.30;99.90;;;;;;5169192;28;20040;-73
2023/04/19 07:22:30;;;;;;;10.55;7.22;;;9.30;99.90;;;;;;5193423;28;20627;-71
2023/04/19 07:25:04;;;;;;;11.15;8.45;;;9.20;99.90;;;;;;5191132;28;20040;-71
2023/04/19 07:27:35;;;;;;;11.45;7.63;;;9.30;99.90;;;;;;5187982;28;20031;-72
2023/04/19 07:30:12;;;;;;;12.00;7.28;;;9.30;99.90;;;;;;5178890;28;20038;-71
2023/04/19 07:32:43;;;;;;;11.18;7.13;;;9.30;99.90;;;;;;5191443;28;20029;-71
2023/04/19 07:35:14;;;;;;;9.20;6.78;;;9.20;99.90;;;;;;5171161;28;20037;-72
2023/04/19 07:37:50;;;;;;;13.25;10.98;;;9.20;99.90;;;;;;5165279;28;20303;-71
2023/04/19 07:40:21;;;;;;;12.27;7.38;;;9.30;99.90;;;;;;5192467;28;20194;-71
2023/04/19 07:42:54;;;;;;;10.40;7.63;;;9.30;99.90;;;;;;5177202;28;20036;-72
2023/04/19 07:45:25;;;;;;;8.93;6.63;;;9.40;99.90;;;;;;5172394;28;20052;-71
2023/04/19 07:47:57;;;;;;;10.25;7.57;;;9.40;99.90;;;;;;5185638;28;20564;-71
2023/04/19 07:50:31;;;;;;;11.90;9.55;;;9.50;99.90;;;;;;5177789;28;20507;-71
2023/04/19 07:53:04;;;;;;;7.13;6.10;;;9.50;99.90;;;;;;5177591;28;20037;-71
2023/04/19 07:55:37;;;;;;;8.70;7.07;;;9.50;99.90;;;;;;5194394;28;20334;-71
2023/04/19 07:58:11;;;;;;;9.98;6.00;;;9.60;99.90;;;;;;5161356;28;20037;-71
2023/04/19 08:00:42;;;;;;;11.15;7.88;;;9.60;99.90;;;;;;5158320;28;20330;-72
2023/04/19 08:03:14;;;;;;;7.38;6.18;;;9.70;99.90;;;;;;5173780;28;20033;-72
2023/04/19 08:05:48;;;;;;;6.28;4.38;;;9.60;99.90;;;;;;5168902;28;20050;-71
2023/04/19 08:08:20;;;;;;;;;;;9.70;99.90;;;;;;5171803;28;20077;-73
2023/04/19 08:10:54;;;;;;;9.40;6.53;;;9.70;99.90;;;;;;5177724;28;20224;-73
2023/04/19 08:13:25;;;;;;;9.77;6.75;;;9.70;99.90;;;;;;5168016;28;20043;-73
2023/04/19 08:15:57;;;;;;;11.73;9.00;;;9.80;99.90;;;;;;5173707;28;20068;-73
2023/04/19 08:18:28;;;;;;;8.57;5.35;;;9.90;99.90;;;;;;5192955;28;20042;-72
2023/04/19 08:21:04;;;;;;;15.02;9.90;;;9.90;99.90;;;;;;5161822;28;20052;-73
2023/04/19 08:23:37;;;;;;;9.02;6.50;;;9.90;99.90;;;;;;5194841;28;20029;-72
2023/04/19 08:26:08;;;;;;;8.32;5.50;;;9.90;99.90;;;;;;5177435;28;20029;-73
2023/04/19 08:28:42;;;;;;;10.07;6.55;;;9.90;99.90;;;;;;5176831;28;20038;-72
2023/04/19 08:31:13;;;;;;;9.82;5.05;;;9.80;99.90;;;;;;5191737;28;20025;-72
2023/04/19 08:33:47;;;;;;;39.03;22.42;;;9.80;99.90;;;;;;5207424;28;20017;-75
2023/04/19 08:36:18;;;;;;;11.15;6.28;;;9.90;99.90;;;;;;5206915;28;20352;-75
2023/04/19 08:38:49;;;;;;;10.10;6.65;;;9.90;99.90;;;;;;5169145;28;20048;-73
2023/04/19 08:41:22;;;;;;;6.90;5.00;;;9.90;99.90;;;;;;5194996;28;20035;-74
2023/04/19 08:43:59;;;;;;;7.25;4.70;;;10.00;99.90;;;;;;5194831;28;20234;-72
2023/04/19 08:46:31;;;;;;;14.20;8.55;;;9.90;99.90;;;;;;5168718;28;20056;-72
2023/04/19 08:49:11;;;;;;;7.60;4.55;;;9.90;99.90;;;;;;5191709;28;20037;-72
2023/04/19 08:51:43;;;;;;;7.57;5.03;;;10.00;99.90;;;;;;5182086;28;20398;-75
2023/04/19 08:54:18;;;;;;;9.77;8.40;;;10.00;99.90;;;;;;5199969;28;20296;-73
2023/04/19 08:56:51;;;;;;;37.10;30.02;;;10.00;99.90;;;;;;5174007;28;20148;-76
2023/04/19 08:59:24;;;;;;;5.90;4.72;;;9.90;99.90;;;;;;5197377;28;20043;-75
2023/04/19 09:01:59;;;;;;;42.90;32.80;;;9.80;99.90;;;;;;5151192;28;20360;-73
2023/04/19 09:04:33;;;;;;;10.43;7.78;;;9.90;99.90;;;;;;5164915;28;20046;-73
2023/04/19 09:07:04;;;;;;;8.18;6.45;;;10.00;99.90;;;;;;5177844;28;20033;-75
2023/04/19 09:09:36;;;;;;;19.15;13.48;;;9.80;99.90;;;;;;5164644;28;20441;-74
2023/04/19 09:12:28;;;;;;;34.55;24.45;;;9.80;99.90;;;;;;5172566;28;20033;-72
2023/04/19 09:15:04;;;;;;;5.18;3.45;;;9.80;99.90;;;;;;5176292;28;20451;-73
2023/04/19 09:17:42;;;;;;;11.73;9.02;;;9.80;99.90;;;;;;5192745;28;20029;-73
2023/04/19 09:20:17;;;;;;;41.20;25.35;;;9.90;99.90;;;;;;5175279;28;20241;-73
2023/04/19 09:23:04;;;;;;;43.03;27.13;;;9.90;99.90;;;;;;5175005;28;20036;-73
2023/04/19 09:25:50;;;;;;;52.88;31.35;;;10.00;99.90;;;;;;5170618;28;20398;-73
2023/04/19 09:28:22;;;;;;;24.25;14.45;;;10.00;99.90;;;;;;5188495;28;20746;-72
2023/04/19 09:30:55;;;;;;;449.88;324.85;;;9.90;99.90;;;;;;5181360;28;20541;-73
2023/04/19 09:33:38;;;;;;;21.42;17.73;;;9.80;99.90;;;;;;5192420;28;20029;-73
2023/04/19 09:36:25;;;;;;;53.17;42.05;;;9.80;99.90;;;;;;5173763;28;20258;-72
2023/04/19 09:38:57;;;;;;;10.20;8.55;;;9.80;99.90;;;;;;5174082;28;20037;-72
2023/04/19 09:41:33;;;;;;;3.05;2.75;;;9.90;99.90;;;;;;5192150;28;20221;-72
2023/04/19 09:44:14;;;;;;;6.55;4.47;;;9.90;99.90;;;;;;5193176;28;20037;-74
2023/04/19 09:46:48;;;;;;;7.90;5.28;;;9.90;99.90;;;;;;5204025;28;20033;-72
2023/04/19 09:49:22;;;;;;;5.13;4.20;;;10.00;99.90;;;;;;5203950;28;20025;-75
2023/04/19 09:51:58;;;;;;;5.70;3.38;;;10.00;99.90;;;;;;5205433;28;20412;-74
2023/04/19 09:54:31;;;;;;;4.70;3.67;;;10.10;99.90;;;;;;5183658;28;20048;-75
2023/04/19 09:57:06;;;;;;;5.63;4.15;;;10.10;99.90;;;;;;5193532;28;20033;-72
2023/04/19 09:59:37;;;;;;;;;;;10.00;99.90;;;;;;5183271;28;20049;-72
2023/04/19 10:02:10;;;;;;;4.15;2.95;;;10.30;99.90;;;;;;5180679;28;20589;-72
2023/04/19 10:04:44;;;;;;;4.32;3.38;;;10.40;99.90;;;;;;5182006;28;20051;-72
2023/04/19 10:07:16;;;;;;;5.60;3.45;;;10.30;99.90;;;;;;5188644;28;20021;-72
2023/04/19 10:09:49;;;;;;;3.83;3.33;;;10.60;99.90;;;;;;5150634;28;20048;-72
2023/04/19 10:12:23;;;;;;;5.10;3.47;;;10.60;99.90;;;;;;5189673;28;20322;-72
2023/04/19 10:15:00;;;;;;;3.72;3.28;;;10.70;99.90;;;;;;5193022;28;20364;-72
2023/04/19 10:17:31;;;;;;;4.32;3.10;;;10.60;99.90;;;;;;5156657;28;20037;-73
2023/04/19 10:20:06;;;;;;;4.20;3.28;;;10.40;99.90;;;;;;5172886;28;20039;-72
2023/04/19 10:22:43;;;;;;;5.55;4.60;;;10.20;99.90;;;;;;5192241;28;20126;-72
2023/04/19 10:25:26;;;;;;;4.43;3.47;;;10.20;99.90;;;;;;5201417;28;20033;-72
2023/04/19 10:27:57;;;;;;;14.00;11.10;;;10.10;99.90;;;;;;5178822;28;20420;-73
2023/04/19 10:30:31;;;;;;;9.75;7.40;;;10.20;99.90;;;;;;5170998;28;20032;-74
2023/04/19 10:33:05;;;;;;;7.80;6.80;;;10.30;99.90;;;;;;5147510;28;20037;-74
2023/04/19 10:35:37;;;;;;;10.70;8.05;;;10.10;99.90;;;;;;5191387;28;20035;-73
2023/04/19 10:38:15;;;;;;;4.88;3.78;;;10.30;99.90;;;;;;5183626;28;20035;-74
2023/04/19 10:41:00;;;;;;;4.53;4.13;;;10.30;99.90;;;;;;5162814;28;20033;-74
2023/04/19 10:43:37;;;;;;;7.75;4.10;;;10.40;99.90;;;;;;5153258;28;20034;-74
2023/04/19 10:46:34;;;;;;;7.97;6.35;;;10.40;99.90;;;;;;5175779;28;20044;-72
2023/04/19 10:49:08;;;;;;;4.40;3.45;;;10.30;99.90;;;;;;5156821;28;20057;-73
2023/04/19 10:51:46;;;;;;;4.63;3.60;;;10.20;99.90;;;;;;5179614;28;20026;-73
2023/04/19 10:54:30;;;;;;;10.30;9.23;;;10.20;99.90;;;;;;5194944;28;20048;-73
2023/04/19 10:57:05;;;;;;;4.20;2.87;;;10.50;99.90;;;;;;5159220;28;20040;-74
2023/04/19 10:59:42;;;;;;;5.25;3.08;;;10.60;99.90;;;;;;5167106;28;20445;-75
2023/04/19 11:02:26;;;;;;;4.32;2.95;;;10.80;99.90;;;;;;5179619;28;20042;-73
2023/04/19 11:04:59;;;;;;;5.40;3.72;;;10.90;99.90;;;;;;5163590;28;20477;-73
2023/04/19 11:07:36;;;;;;;4.53;3.33;;;10.70;99.90;;;;;;5152858;28;20018;-73
2023/04/19 11:10:09;;;;;;;4.47;3.38;;;10.60;99.90;;;;;;5196239;28;20036;-72
2023/04/19 11:12:45;;;;;;;5.22;4.10;;;10.50;99.90;;;;;;5194539;28;20033;-72
2023/04/19 11:15:23;;;;;;;5.57;3.67;;;10.20;99.90;;;;;;5193046;28;20026;-75
2023/04/19 11:17:54;;;;;;;8.23;4.75;;;10.00;99.90;;;;;;5194132;28;20041;-74
2023/04/19 11:20:26;;;;;;;5.18;3.60;;;9.90;99.90;;;;;;5194155;28;20033;-75
2023/04/19 11:22:59;;;;;;;7.63;4.65;;;9.80;99.90;;;;;;5177050;28;20193;-73
2023/04/19 11:25:32;;;;;;;5.40;4.13;;;9.80;99.90;;;;;;5178441;28;20040;-74
2023/04/19 11:28:04;;;;;;;4.72;3.78;;;9.80;99.90;;;;;;5185773;28;20063;-74
2023/04/19 11:30:36;;;;;;;4.80;3.45;;;9.70;99.90;;;;;;5156894;28;20040;-75
2023/04/19 11:33:10;;;;;;;6.15;3.83;;;9.80;99.90;;;;;;5176303;28;20043;-73
2023/04/19 11:35:42;;;;;;;;;;;9.80;99.90;;;;;;5193600;28;20029;-73
2023/04/19 11:38:13;;;;;;;6.40;4.13;;;10.10;99.90;;;;;;5195016;28;19909;-73
2023/04/19 11:40:44;;;;;;;6.57;4.68;;;9.90;99.90;;;;;;5144704;28;20046;-73
2023/04/19 11:43:19;;;;;;;5.75;4.07;;;9.90;99.90;;;;;;5176852;28;20037;-72
2023/04/19 11:45:54;;;;;;;5.57;3.67;;;10.00;99.90;;;;;;5180353;28;20246;-73
2023/04/19 11:48:25;;;;;;;4.35;3.45;;;10.10;99.90;;;;;;5161990;28;20310;-73
2023/04/19 11:50:57;;;;;;;4.80;3.33;;;10.30;99.90;;;;;;5175999;28;20037;-72
2023/04/19 11:53:32;;;;;;;5.57;4.22;;;10.70;99.90;;;;;;5195619;28;20025;-72
2023/04/19 11:56:06;;;;;;;42.33;25.58;;;11.10;99.90;;;;;;5176621;28;20033;-74
2023/04/19 11:58:47;;;;;;;25.80;19.52;;;11.60;99.90;;;;;;5154746;28;20049;-72
2023/04/19 12:01:20;;;;;;;44.33;28.33;;;11.80;99.90;;;;;;5181417;28;20025;-73
2023/04/19 12:03:54;;;;;;;22.23;16.40;;;12.10;99.90;;;;;;5159804;28;20047;-73
2023/04/19 12:06:30;;;;;;;9.57;8.57;;;12.20;99.90;;;;;;5169352;28;20461;-73
2023/04/19 12:09:07;;;;;;;6.13;4.57;;;12.30;99.90;;;;;;5176224;28;20750;-74
2023/04/19 12:11:48;;;;;;;2.85;2.38;;;12.30;99.90;;;;;;5167715;28;20147;-72
2023/04/19 12:14:22;;;;;;;4.28;3.63;;;12.10;99.90;;;;;;5173219;28;20041;-72
2023/04/19 12:17:11;;;;;;;3.47;3.17;;;12.30;99.90;;;;;;5170119;28;20628;-71
2023/04/19 12:19:48;;;;;;;2.58;2.15;;;12.30;99.90;;;;;;5172911;28;20049;-71
2023/04/19 12:22:24;;;;;;;3.00;2.35;;;12.30;99.90;;;;;;5171181;28;20032;-73
2023/04/19 12:24:59;;;;;;;2.55;2.10;;;11.90;99.90;;;;;;5190482;28;20254;-72
2023/04/19 12:27:30;;;;;;;2.63;1.92;;;11.80;99.90;;;;;;5165852;28;20535;-70
2023/04/19 12:30:03;;;;;;;3.42;2.03;;;11.60;99.90;;;;;;5195175;28;20490;-71
2023/04/19 12:32:34;;;;;;;3.35;2.45;;;11.50;99.90;;;;;;5158691;28;20567;-71
2023/04/19 12:35:05;;;;;;;2.70;2.20;;;11.30;99.90;;;;;;5168273;28;20037;-71
2023/04/19 12:37:38;;;;;;;4.97;2.90;;;11.10;99.90;;;;;;5189785;28;20060;-70
2023/04/19 12:40:12;;;;;;;3.03;2.55;;;11.00;99.90;;;;;;5182700;28;20047;-71
2023/04/19 12:42:43;;;;;;;42.28;23.77;;;10.80;99.90;;;;;;5184028;28;20029;-72
2023/04/19 12:45:17;;;;;;;37.60;33.70;;;11.00;99.90;;;;;;5177560;28;20047;-75
2023/04/19 12:47:51;;;;;;;9.35;8.43;;;11.00;99.90;;;;;;5172820;28;20048;-73
2023/04/19 12:50:22;;;;;;;;;;;10.90;99.90;;;;;;5187786;28;20241;-72
2023/04/19 12:52:56;;;;;;;5.50;4.93;;;10.90;99.90;;;;;;5182696;28;19909;-71
2023/04/19 12:55:30;;;;;;;4.15;3.25;;;11.00;99.90;;;;;;5182314;28;20040;-71
2023/04/19 12:58:03;;;;;;;5.22;3.42;;;11.00;99.90;;;;;;5191029;28;20047;-72
2023/04/19 13:00:37;;;;;;;3.78;2.60;;;11.00;99.90;;;;;;5154719;28;20037;-70
2023/04/19 13:03:11;;;;;;;3.17;2.88;;;11.10;99.90;;;;;;5149421;28;20042;-69
2023/04/19 13:05:42;;;;;;;4.13;3.25;;;11.10;99.90;;;;;;5155344;28;20043;-71
2023/04/19 13:08:13;;;;;;;2.72;2.33;;;11.10;99.90;;;;;;5174788;28;20029;-70
2023/04/19 13:10:47;;;;;;;2.10;1.90;;;10.90;99.90;;;;;;5171845;28;20057;-70
2023/04/19 13:13:18;;;;;;;3.20;2.27;;;10.80;99.90;;;;;;5154323;28;20033;-71
2023/04/19 13:15:50;;;;;;;2.45;2.10;;;10.80;99.90;;;;;;5171479;28;20046;-70
2023/04/19 13:18:21;;;;;;;2.75;2.10;;;10.80;99.90;;;;;;5170162;28;20039;-70
2023/04/19 13:20:55;;;;;;;2.28;2.08;;;10.90;99.90;;;;;;5185357;28;20037;-71
2023/04/19 13:23:34;;;;;;;2.97;2.70;;;11.00;99.90;;;;;;5178094;28;20013;-70